Robert G. Stone, Jr. — WDD4596 — position and weather

sailwx.info

Track history (hours):
 
Tides and Currents Weather Stations Pressure Air Temp Water Temp Dewpoint Dewpoint Depression Visibility Wind Speed Wind Dir Waves Ship Positions

Robert G. Stone, Jr.

Owner: Kirby Inland Marine, LP, Houston, TX. More information available from US FCC via Universal Licensing System and Coast Guard Vessel Documentation Center.

Last reported at 2017-Nov-16 14:35 UTC. Time now 2017-Nov-21 02:38 UTC.
Position N 29°33' W 090°28'.

Length 210 m; draft 2.7 m.

Type: . MMSI: 367146780.

Date/timePositionNaut miles runAvg speedWind from/ knotsBaromVisibWave heightAir tempDewpointWater temp
2017-Nov-16 14:35N 29°33' W 090°28'0 5.2
2017-Nov-16 14:30N 29°34' W 090°29'2 4.9
2017-Nov-16 14:00N 29°34' W 090°31'0 0.2
2017-Nov-16 13:30N 29°34' W 090°32'0 0.0
2017-Nov-16 13:00N 29°34' W 090°32'0 0.0
2017-Nov-16 12:30N 29°34' W 090°32'0 0.0
2017-Nov-16 10:51N 29°34' W 090°32'0 0.2
2017-Nov-16 10:29N 29°34' W 090°31'0 0.0
2017-Nov-16 10:00N 29°34' W 090°32'0 0.1
2017-Nov-16 09:30N 29°34' W 090°31'0 0.0
2017-Nov-16 08:54N 29°34' W 090°31'0 0.0
2017-Nov-16 08:25N 29°34' W 090°31'0 0.0
2017-Nov-16 07:58N 29°34' W 090°31'0 0.0
2017-Nov-16 07:27N 29°34' W 090°31'0 0.1
2017-Nov-16 07:00N 29°34' W 090°31'2 2.9
2017-Nov-16 06:29N 29°34' W 090°33'2 5.0
2017-Nov-16 06:00N 29°35' W 090°36'2 4.8
2017-Nov-16 05:30N 29°35' W 090°38'2 4.6
2017-Nov-16 05:00N 29°36' W 090°41'2 3.0
2017-Nov-16 04:30N 29°36' W 090°43'2 3.9
2017-Nov-16 04:00N 29°34' W 090°43'2 3.7
2017-Nov-16 03:30N 29°34' W 090°45'0 0.7
2017-Nov-16 03:00N 29°33' W 090°45'0 0.0
2017-Nov-16 02:30N 29°33' W 090°45'0 0.0
2017-Nov-16 02:00N 29°33' W 090°45'0 0.3
2017-Nov-16 01:30N 29°33' W 090°45'1 1.4
2017-Nov-16 01:00N 29°32' W 090°46'2 3.1
2017-Nov-16 00:30N 29°32' W 090°47'3 6.0
2017-Nov-16 00:00N 29°32' W 090°51'3 6.0
2017-Nov-15 23:30N 29°33' W 090°54'55 4.0
2017-Nov-15 09:49N 29°51' W 091°54'3 5.2
2017-Nov-15 09:15N 29°50' W 091°58'1 5.3
2017-Nov-15 09:00N 29°50' W 091°59'3 5.2
2017-Nov-15 08:30N 29°49' W 092°02'3 5.3
2017-Nov-15 08:00N 29°48' W 092°05'3 5.4
2017-Nov-15 07:30N 29°47' W 092°08'3 5.3
2017-Nov-15 07:00N 29°47' W 092°10'2 3.6
2017-Nov-15 06:30N 29°47' W 092°12'1 2.3
2017-Nov-15 06:00N 29°48' W 092°14'1 1.7
2017-Nov-15 05:30N 29°48' W 092°15'0 0.3
2017-Nov-15 05:00N 29°48' W 092°15'0 0.8
2017-Nov-15 04:30N 29°48' W 092°15'2 4.2
2017-Nov-15 04:00N 29°49' W 092°17'2 4.9
2017-Nov-15 03:30N 29°50' W 092°20'2 4.6
2017-Nov-15 02:58N 29°52' W 092°22'2 5.1
2017-Nov-15 02:30N 29°53' W 092°24'3 5.4
2017-Nov-15 02:00N 29°54' W 092°27'33 4.9
2017-Nov-14 19:24N 29°56' W 093°05'2 4.2
2017-Nov-14 19:00N 29°56' W 093°07'2 4.9
2017-Nov-14 18:30N 29°56' W 093°10'3 5.2
2017-Nov-14 18:01N 29°58' W 093°11'3 5.0
2017-Nov-14 17:30N 29°60' W 093°13'2 4.5
2017-Nov-14 17:00N 30°02' W 093°15'2 4.7
2017-Nov-14 16:31N 30°04' W 093°16'2 3.8
2017-Nov-14 16:00N 30°05' W 093°18'1 2.0
2017-Nov-14 15:30N 30°06' W 093°18'0 0.1
2017-Nov-14 15:00N 30°06' W 093°18'0 0.0
2017-Nov-14 14:30N 30°06' W 093°18'0 0.2
2017-Nov-14 13:59N 30°06' W 093°18'0 1.0
2017-Nov-14 13:31N 30°06' W 093°19'2 3.9
2017-Nov-14 13:00N 30°04' W 093°20'2 3.3
2017-Nov-14 12:30N 30°04' W 093°22'  
2017-Nov-12 04:59N 29°14' W 095°13'0 0.0
2017-Nov-12 04:29N 29°14' W 095°13'0 0.0
2017-Nov-12 03:41N 29°14' W 095°13'24 0.8
2017-Nov-10 21:41N 29°32' W 094°54'2 9.3
2017-Nov-10 21:30N 29°33' W 094°55'5 9.6
2017-Nov-10 21:00N 29°38' W 094°58'5 9.6
2017-Nov-10 20:30N 29°42' W 094°60'4 8.1
2017-Nov-10 20:00N 29°44' W 095°04'2 0.2
2017-Nov-10 06:39N 29°46' W 095°05'1 3.2
2017-Nov-10 06:29N 29°46' W 095°05'0 0.3
2017-Nov-10 04:50N 29°46' W 095°06'0 0.0
2017-Nov-10 01:42N 29°46' W 095°06'1 4.2
2017-Nov-10 01:25N 29°47' W 095°05'0 0.5
2017-Nov-10 00:47N 29°46' W 095°05'3 3.2
2017-Nov-09 23:55N 29°44' W 095°03'3 6.8
2017-Nov-09 23:30N 29°42' W 095°01'4 7.6
2017-Nov-09 23:00N 29°39' W 094°58'3 5.3
2017-Nov-09 22:30N 29°37' W 094°60'1 2.5
2017-Nov-09 22:00N 29°37' W 095°01'0 0.0
2017-Nov-09 21:30N 29°37' W 095°01'0 0.0
2017-Nov-09 21:00N 29°37' W 095°01'0 0.0
2017-Nov-09 20:30N 29°37' W 095°01'0 0.0
2017-Nov-09 20:00N 29°37' W 095°01'0 0.0
2017-Nov-09 19:30N 29°37' W 095°01'0 0.0
2017-Nov-09 19:00N 29°37' W 095°01'0 0.0
2017-Nov-09 18:30N 29°37' W 095°01'0 0.0
2017-Nov-09 18:00N 29°37' W 095°01'0 0.0
2017-Nov-09 17:30N 29°37' W 095°01'0 0.0
2017-Nov-09 17:00N 29°37' W 095°01'0 0.0
2017-Nov-09 16:30N 29°37' W 095°01'0 0.0
2017-Nov-09 16:00N 29°37' W 095°01'0 0.0
2017-Nov-09 15:30N 29°37' W 095°01'0 0.0
2017-Nov-09 15:00N 29°37' W 095°01'0 0.0
2017-Nov-09 14:30N 29°37' W 095°01'0 0.0
2017-Nov-09 14:00N 29°37' W 095°01'0 0.0
2017-Nov-09 13:30N 29°37' W 095°01'0 0.0
2017-Nov-09 13:00N 29°37' W 095°01'0 0.0
2017-Nov-09 12:30N 29°37' W 095°01'0 0.0
2017-Nov-09 12:00N 29°37' W 095°01'0 0.0
2017-Nov-09 11:30N 29°37' W 095°01'0 0.0
2017-Nov-09 10:57N 29°37' W 095°01'0 0.0
2017-Nov-09 10:30N 29°37' W 095°01'0 0.0
2017-Nov-09 10:00N 29°37' W 095°01'0 0.0
2017-Nov-09 09:30N 29°37' W 095°01'0 0.1
2017-Nov-09 09:00N 29°36' W 095°01'0 0.0
2017-Nov-09 08:30N 29°36' W 095°01'0 0.0
2017-Nov-09 08:00N 29°36' W 095°01'0 0.0
2017-Nov-09 07:30N 29°36' W 095°01'0 0.0
2017-Nov-09 07:00N 29°36' W 095°01'0 0.0
2017-Nov-09 06:30N 29°36' W 095°01'0 0.0
2017-Nov-09 06:00N 29°36' W 095°01'0 0.0
2017-Nov-09 05:30N 29°36' W 095°01'0 0.0
2017-Nov-09 05:00N 29°36' W 095°01'0 0.0
2017-Nov-09 04:30N 29°36' W 095°01'0 0.0
2017-Nov-09 04:00N 29°36' W 095°01'0 0.0
2017-Nov-09 03:30N 29°36' W 095°01'0 0.0
2017-Nov-09 03:00N 29°36' W 095°01'0 0.2
2017-Nov-09 02:30N 29°37' W 095°01'2 3.0
2017-Nov-09 02:00N 29°37' W 094°59'2 4.1
2017-Nov-09 01:30N 29°38' W 094°58'4 7.3
2017-Nov-09 01:00N 29°42' W 094°60'3 6.7
2017-Nov-09 00:30N 29°44' W 095°03'3 6.1
2017-Nov-08 23:59N 29°46' W 095°05'0 0.0
2017-Nov-08 23:10N 29°46' W 095°05'0 0.2
2017-Nov-08 22:21N 29°46' W 095°05'0 0.0
2017-Nov-08 13:22N 29°45' W 095°06'0 0.6
2017-Nov-08 12:56N 29°45' W 095°06'0 0.6
2017-Nov-08 12:29N 29°45' W 095°06'1 1.4
2017-Nov-08 11:54N 29°46' W 095°05'0 0.0
2017-Nov-07 23:30N 29°46' W 095°05'1 0.8
2017-Nov-07 21:37N 29°45' W 095°04'1 5.9
2017-Nov-07 21:30N 29°44' W 095°03'3 5.4
2017-Nov-07 21:00N 29°42' W 095°01'4 7.3
2017-Nov-07 20:30N 29°40' W 094°58'5 8.6
2017-Nov-07 19:54N 29°35' W 094°56'3 8.8
2017-Nov-07 19:30N 29°32' W 094°54'71 3.7
2017-Nov-07 00:17N 30°04' W 093°41'2 5.2
2017-Nov-06 23:59N 30°04' W 093°39'3 7.2
2017-Nov-06 23:30N 30°04' W 093°35'3 6.9
2017-Nov-06 23:00N 30°04' W 093°31'3 6.9
2017-Nov-06 22:30N 30°04' W 093°27'3 6.9
2017-Nov-06 22:01N 30°04' W 093°23'2 4.9
2017-Nov-06 21:31N 30°04' W 093°20'2 4.7
2017-Nov-06 21:00N 30°06' W 093°18'2 5.0
2017-Nov-06 20:31N 30°04' W 093°16'  
Track history (hours):
 
Tides and Currents Weather Stations Pressure Air Temp Water Temp Dewpoint Dewpoint Depression Visibility Wind Speed Wind Dir Waves Ship Positions

Robert G. Stone, Jr.

Owner: Kirby Inland Marine, LP, Houston, TX. More information available from US FCC via Universal Licensing System and Coast Guard Vessel Documentation Center.

Last reported at 2017-Nov-16 14:35 UTC. Time now 2017-Nov-21 02:38 UTC.
Position N 29°33' W 090°28'.

Length 210 m; draft 2.7 m.

Type: . MMSI: 367146780.

Date/timePositionNaut miles runAvg speedWind from/ knotsBaromVisibWave heightAir tempDewpointWater temp
2017-Nov-16 14:35N 29°33' W 090°28'0 5.2
2017-Nov-16 14:30N 29°34' W 090°29'2 4.9
2017-Nov-16 14:00N 29°34' W 090°31'0 0.2
2017-Nov-16 13:30N 29°34' W 090°32'0 0.0
2017-Nov-16 13:00N 29°34' W 090°32'0 0.0
2017-Nov-16 12:30N 29°34' W 090°32'0 0.0
2017-Nov-16 10:51N 29°34' W 090°32'0 0.2
2017-Nov-16 10:29N 29°34' W 090°31'0 0.0
2017-Nov-16 10:00N 29°34' W 090°32'0 0.1
2017-Nov-16 09:30N 29°34' W 090°31'0 0.0
2017-Nov-16 08:54N 29°34' W 090°31'0 0.0
2017-Nov-16 08:25N 29°34' W 090°31'0 0.0
2017-Nov-16 07:58N 29°34' W 090°31'0 0.0
2017-Nov-16 07:27N 29°34' W 090°31'0 0.1
2017-Nov-16 07:00N 29°34' W 090°31'2 2.9
2017-Nov-16 06:29N 29°34' W 090°33'2 5.0
2017-Nov-16 06:00N 29°35' W 090°36'2 4.8
2017-Nov-16 05:30N 29°35' W 090°38'2 4.6
2017-Nov-16 05:00N 29°36' W 090°41'2 3.0
2017-Nov-16 04:30N 29°36' W 090°43'2 3.9
2017-Nov-16 04:00N 29°34' W 090°43'2 3.7
2017-Nov-16 03:30N 29°34' W 090°45'0 0.7
2017-Nov-16 03:00N 29°33' W 090°45'0 0.0
2017-Nov-16 02:30N 29°33' W 090°45'0 0.0
2017-Nov-16 02:00N 29°33' W 090°45'0 0.3
2017-Nov-16 01:30N 29°33' W 090°45'1 1.4
2017-Nov-16 01:00N 29°32' W 090°46'2 3.1
2017-Nov-16 00:30N 29°32' W 090°47'3 6.0
2017-Nov-16 00:00N 29°32' W 090°51'3 6.0
2017-Nov-15 23:30N 29°33' W 090°54'55 4.0
2017-Nov-15 09:49N 29°51' W 091°54'3 5.2
2017-Nov-15 09:15N 29°50' W 091°58'1 5.3
2017-Nov-15 09:00N 29°50' W 091°59'3 5.2
2017-Nov-15 08:30N 29°49' W 092°02'3 5.3
2017-Nov-15 08:00N 29°48' W 092°05'3 5.4
2017-Nov-15 07:30N 29°47' W 092°08'3 5.3
2017-Nov-15 07:00N 29°47' W 092°10'2 3.6
2017-Nov-15 06:30N 29°47' W 092°12'1 2.3
2017-Nov-15 06:00N 29°48' W 092°14'1 1.7
2017-Nov-15 05:30N 29°48' W 092°15'0 0.3
2017-Nov-15 05:00N 29°48' W 092°15'0 0.8
2017-Nov-15 04:30N 29°48' W 092°15'2 4.2
2017-Nov-15 04:00N 29°49' W 092°17'2 4.9
2017-Nov-15 03:30N 29°50' W 092°20'2 4.6
2017-Nov-15 02:58N 29°52' W 092°22'2 5.1
2017-Nov-15 02:30N 29°53' W 092°24'3 5.4
2017-Nov-15 02:00N 29°54' W 092°27'33 4.9
2017-Nov-14 19:24N 29°56' W 093°05'2 4.2
2017-Nov-14 19:00N 29°56' W 093°07'2 4.9
2017-Nov-14 18:30N 29°56' W 093°10'3 5.2
2017-Nov-14 18:01N 29°58' W 093°11'3 5.0
2017-Nov-14 17:30N 29°60' W 093°13'2 4.5
2017-Nov-14 17:00N 30°02' W 093°15'2 4.7
2017-Nov-14 16:31N 30°04' W 093°16'2 3.8
2017-Nov-14 16:00N 30°05' W 093°18'1 2.0
2017-Nov-14 15:30N 30°06' W 093°18'0 0.1
2017-Nov-14 15:00N 30°06' W 093°18'0 0.0
2017-Nov-14 14:30N 30°06' W 093°18'0 0.2
2017-Nov-14 13:59N 30°06' W 093°18'0 1.0
2017-Nov-14 13:31N 30°06' W 093°19'2 3.9
2017-Nov-14 13:00N 30°04' W 093°20'2 3.3
2017-Nov-14 12:30N 30°04' W 093°22'  
2017-Nov-12 04:59N 29°14' W 095°13'0 0.0
2017-Nov-12 04:29N 29°14' W 095°13'0 0.0
2017-Nov-12 03:41N 29°14' W 095°13'24 0.8
2017-Nov-10 21:41N 29°32' W 094°54'2 9.3
2017-Nov-10 21:30N 29°33' W 094°55'5 9.6
2017-Nov-10 21:00N 29°38' W 094°58'5 9.6
2017-Nov-10 20:30N 29°42' W 094°60'4 8.1
2017-Nov-10 20:00N 29°44' W 095°04'2 0.2
2017-Nov-10 06:39N 29°46' W 095°05'1 3.2
2017-Nov-10 06:29N 29°46' W 095°05'0 0.3
2017-Nov-10 04:50N 29°46' W 095°06'0 0.0
2017-Nov-10 01:42N 29°46' W 095°06'1 4.2
2017-Nov-10 01:25N 29°47' W 095°05'0 0.5
2017-Nov-10 00:47N 29°46' W 095°05'3 3.2
2017-Nov-09 23:55N 29°44' W 095°03'3 6.8
2017-Nov-09 23:30N 29°42' W 095°01'4 7.6
2017-Nov-09 23:00N 29°39' W 094°58'3 5.3
2017-Nov-09 22:30N 29°37' W 094°60'1 2.5
2017-Nov-09 22:00N 29°37' W 095°01'0 0.0
2017-Nov-09 21:30N 29°37' W 095°01'0 0.0
2017-Nov-09 21:00N 29°37' W 095°01'0 0.0
2017-Nov-09 20:30N 29°37' W 095°01'0 0.0
2017-Nov-09 20:00N 29°37' W 095°01'0 0.0
2017-Nov-09 19:30N 29°37' W 095°01'0 0.0
2017-Nov-09 19:00N 29°37' W 095°01'0 0.0
2017-Nov-09 18:30N 29°37' W 095°01'0 0.0
2017-Nov-09 18:00N 29°37' W 095°01'0 0.0
2017-Nov-09 17:30N 29°37' W 095°01'0 0.0
2017-Nov-09 17:00N 29°37' W 095°01'0 0.0
2017-Nov-09 16:30N 29°37' W 095°01'0 0.0
2017-Nov-09 16:00N 29°37' W 095°01'0 0.0
2017-Nov-09 15:30N 29°37' W 095°01'0 0.0
2017-Nov-09 15:00N 29°37' W 095°01'0 0.0
2017-Nov-09 14:30N 29°37' W 095°01'0 0.0
2017-Nov-09 14:00N 29°37' W 095°01'0 0.0
2017-Nov-09 13:30N 29°37' W 095°01'0 0.0
2017-Nov-09 13:00N 29°37' W 095°01'0 0.0
2017-Nov-09 12:30N 29°37' W 095°01'0 0.0
2017-Nov-09 12:00N 29°37' W 095°01'0 0.0
2017-Nov-09 11:30N 29°37' W 095°01'0 0.0
2017-Nov-09 10:57N 29°37' W 095°01'0 0.0
2017-Nov-09 10:30N 29°37' W 095°01'0 0.0
2017-Nov-09 10:00N 29°37' W 095°01'0 0.0
2017-Nov-09 09:30N 29°37' W 095°01'0 0.1
2017-Nov-09 09:00N 29°36' W 095°01'0 0.0
2017-Nov-09 08:30N 29°36' W 095°01'0 0.0
2017-Nov-09 08:00N 29°36' W 095°01'0 0.0
2017-Nov-09 07:30N 29°36' W 095°01'0 0.0
2017-Nov-09 07:00N 29°36' W 095°01'0 0.0
2017-Nov-09 06:30N 29°36' W 095°01'0 0.0
2017-Nov-09 06:00N 29°36' W 095°01'0 0.0
2017-Nov-09 05:30N 29°36' W 095°01'0 0.0
2017-Nov-09 05:00N 29°36' W 095°01'0 0.0
2017-Nov-09 04:30N 29°36' W 095°01'0 0.0
2017-Nov-09 04:00N 29°36' W 095°01'0 0.0
2017-Nov-09 03:30N 29°36' W 095°01'0 0.0
2017-Nov-09 03:00N 29°36' W 095°01'0 0.2
2017-Nov-09 02:30N 29°37' W 095°01'2 3.0
2017-Nov-09 02:00N 29°37' W 094°59'2 4.1
2017-Nov-09 01:30N 29°38' W 094°58'4 7.3
2017-Nov-09 01:00N 29°42' W 094°60'3 6.7
2017-Nov-09 00:30N 29°44' W 095°03'3 6.1
2017-Nov-08 23:59N 29°46' W 095°05'0 0.0
2017-Nov-08 23:10N 29°46' W 095°05'0 0.2
2017-Nov-08 22:21N 29°46' W 095°05'0 0.0
2017-Nov-08 13:22N 29°45' W 095°06'0 0.6
2017-Nov-08 12:56N 29°45' W 095°06'0 0.6
2017-Nov-08 12:29N 29°45' W 095°06'1 1.4
2017-Nov-08 11:54N 29°46' W 095°05'0 0.0
2017-Nov-07 23:30N 29°46' W 095°05'1 0.8
2017-Nov-07 21:37N 29°45' W 095°04'1 5.9
2017-Nov-07 21:30N 29°44' W 095°03'3 5.4
2017-Nov-07 21:00N 29°42' W 095°01'4 7.3
2017-Nov-07 20:30N 29°40' W 094°58'5 8.6
2017-Nov-07 19:54N 29°35' W 094°56'3 8.8
2017-Nov-07 19:30N 29°32' W 094°54'71 3.7
2017-Nov-07 00:17N 30°04' W 093°41'2 5.2
2017-Nov-06 23:59N 30°04' W 093°39'3 7.2
2017-Nov-06 23:30N 30°04' W 093°35'3 6.9
2017-Nov-06 23:00N 30°04' W 093°31'3 6.9
2017-Nov-06 22:30N 30°04' W 093°27'3 6.9
2017-Nov-06 22:01N 30°04' W 093°23'2 4.9
2017-Nov-06 21:31N 30°04' W 093°20'2 4.7
2017-Nov-06 21:00N 30°06' W 093°18'2 5.0
2017-Nov-06 20:31N 30°04' W 093°16'  

Dump ship's entire track history